sensor_id;sensor_type;location;lat;lon;timestamp;pressure;altitude;pressure_sealevel;temperature;humidity
31299;BME280;17927;52.350;13.402;2024-03-07T00:00:25;102227.94;;;11.68;53.52
31299;BME280;17927;52.350;13.402;2024-03-07T00:02:51;102235.22;;;11.67;53.65
31299;BME280;17927;52.350;13.402;2024-03-07T00:05:20;102229.91;;;11.66;53.70
31299;BME280;17927;52.350;13.402;2024-03-07T00:07:49;102231.84;;;11.64;53.48
31299;BME280;17927;52.350;13.402;2024-03-07T00:10:14;102232.84;;;11.63;53.31
31299;BME280;17927;52.350;13.402;2024-03-07T00:12:40;102233.81;;;11.62;53.76
31299;BME280;17927;52.350;13.402;2024-03-07T00:15:06;102226.56;;;11.62;53.78
31299;BME280;17927;52.350;13.402;2024-03-07T00:17:32;102228.38;;;11.62;54.13
31299;BME280;17927;52.350;13.402;2024-03-07T00:19:57;102232.06;;;11.61;53.95
31299;BME280;17927;52.350;13.402;2024-03-07T00:22:23;102232.06;;;11.61;54.08
31299;BME280;17927;52.350;13.402;2024-03-07T00:24:49;102225.81;;;11.60;53.97
31299;BME280;17927;52.350;13.402;2024-03-07T00:27:14;102223.22;;;11.58;53.85
31299;BME280;17927;52.350;13.402;2024-03-07T00:29:40;102224.22;;;11.57;54.17
31299;BME280;17927;52.350;13.402;2024-03-07T00:32:05;102218.03;;;11.55;54.19
31299;BME280;17927;52.350;13.402;2024-03-07T00:34:30;102228.88;;;11.55;54.18
31299;BME280;17927;52.350;13.402;2024-03-07T00:36:56;102215.44;;;11.54;54.27
31299;BME280;17927;52.350;13.402;2024-03-07T00:39:23;102228.88;;;11.55;54.30
31299;BME280;17927;52.350;13.402;2024-03-07T00:41:49;102220.75;;;11.55;53.88
31299;BME280;17927;52.350;13.402;2024-03-07T00:44:14;102218.03;;;11.55;54.19
31299;BME280;17927;52.350;13.402;2024-03-07T00:46:39;102229.84;;;11.54;54.31
31299;BME280;17927;52.350;13.402;2024-03-07T00:49:04;102228.88;;;11.55;54.30
31299;BME280;17927;52.350;13.402;2024-03-07T00:51:30;102221.81;;;11.53;54.14
31299;BME280;17927;52.350;13.402;2024-03-07T00:53:55;102222.81;;;11.52;54.13
31299;BME280;17927;52.350;13.402;2024-03-07T00:56:21;102218.47;;;11.49;54.03
31299;BME280;17927;52.350;13.402;2024-03-07T00:58:48;102217.72;;;11.47;54.26
31299;BME280;17927;52.350;13.402;2024-03-07T01:01:13;102212.44;;;11.46;54.57
31299;BME280;17927;52.350;13.402;2024-03-07T01:03:39;102218.59;;;11.48;54.46
31299;BME280;17927;52.350;13.402;2024-03-07T01:06:04;102217.84;;;11.46;54.66
31299;BME280;17927;52.350;13.402;2024-03-07T01:08:29;102216.00;;;11.46;54.71
31299;BME280;17927;52.350;13.402;2024-03-07T01:10:57;102216.13;;;11.45;54.65
31299;BME280;17927;52.350;13.402;2024-03-07T01:13:22;102209.84;;;11.44;54.59
31299;BME280;17927;52.350;13.402;2024-03-07T01:15:49;102209.94;;;11.42;54.38
31299;BME280;17927;52.350;13.402;2024-03-07T01:18:15;102210.94;;;11.41;54.59
31299;BME280;17927;52.350;13.402;2024-03-07T01:20:40;102212.78;;;11.41;54.84
31299;BME280;17927;52.350;13.402;2024-03-07T01:23:05;102217.44;;;11.39;54.48
31299;BME280;17927;52.350;13.402;2024-03-07T01:25:32;102208.44;;;11.38;54.77
31299;BME280;17927;52.350;13.402;2024-03-07T01:27:59;102207.81;;;11.35;54.63
31299;BME280;17927;52.350;13.402;2024-03-07T01:30:24;102210.63;;;11.33;54.36
31299;BME280;17927;52.350;13.402;2024-03-07T01:32:51;102212.47;;;11.33;54.70
31299;BME280;17927;52.350;13.402;2024-03-07T01:35:16;102214.31;;;11.32;54.91
31299;BME280;17927;52.350;13.402;2024-03-07T01:37:42;102210.84;;;11.30;54.82
31299;BME280;17927;52.350;13.402;2024-03-07T01:40:07;102211.84;;;11.29;54.55
31299;BME280;17927;52.350;13.402;2024-03-07T01:42:33;102216.41;;;11.29;54.76
31299;BME280;17927;52.350;13.402;2024-03-07T01:44:58;102203.94;;;11.26;54.61
31299;BME280;17927;52.350;13.402;2024-03-07T01:47:24;102216.72;;;11.24;54.77
31299;BME280;17927;52.350;13.402;2024-03-07T01:49:49;102218.66;;;11.22;54.78
31299;BME280;17927;52.350;13.402;2024-03-07T01:52:15;102215.09;;;11.21;54.41
31299;BME280;17927;52.350;13.402;2024-03-07T01:54:40;102217.03;;;11.19;54.70
31299;BME280;17927;52.350;13.402;2024-03-07T01:57:07;102222.47;;;11.19;54.63
31299;BME280;17927;52.350;13.402;2024-03-07T01:59:33;102215.22;;;11.20;54.82
31299;BME280;17927;52.350;13.402;2024-03-07T02:01:58;102215.31;;;11.18;54.50
31299;BME280;17927;52.350;13.402;2024-03-07T02:04:24;102222.59;;;11.18;54.73
31299;BME280;17927;52.350;13.402;2024-03-07T02:06:50;102209.16;;;11.16;54.61
31299;BME280;17927;52.350;13.402;2024-03-07T02:09:15;102215.53;;;11.15;54.58
31299;BME280;17927;52.350;13.402;2024-03-07T02:11:41;102212.09;;;11.13;54.37
31299;BME280;17927;52.350;13.402;2024-03-07T02:14:06;102212.09;;;11.13;54.58
31299;BME280;17927;52.350;13.402;2024-03-07T02:16:31;102206.03;;;11.09;54.33
31299;BME280;17927;52.350;13.402;2024-03-07T02:18:57;102210.69;;;11.07;54.38
31299;BME280;17927;52.350;13.402;2024-03-07T02:21:24;102205.41;;;11.06;54.13
31299;BME280;17927;52.350;13.402;2024-03-07T02:23:49;102211.13;;;11.01;53.97
31299;BME280;17927;52.350;13.402;2024-03-07T02:26:14;102206.78;;;10.99;54.19
31299;BME280;17927;52.350;13.402;2024-03-07T02:28:39;102200.66;;;10.96;53.90
31299;BME280;17927;52.350;13.402;2024-03-07T02:31:05;102200.88;;;10.93;53.88
31299;BME280;17927;52.350;13.402;2024-03-07T02:33:42;102193.94;;;10.89;53.90
31299;BME280;17927;52.350;13.402;2024-03-07T02:36:07;102203.25;;;10.85;53.64
31299;BME280;17927;52.350;13.402;2024-03-07T02:38:33;102191.78;;;10.81;53.86
31299;BME280;17927;52.350;13.402;2024-03-07T02:40:59;102192.00;;;10.78;53.59
31299;BME280;17927;52.350;13.402;2024-03-07T02:43:24;102188.78;;;10.73;53.68
31299;BME280;17927;52.350;13.402;2024-03-07T02:45:50;102189.97;;;10.69;53.59
31299;BME280;17927;52.350;13.402;2024-03-07T02:48:15;102199.16;;;10.66;53.84
31299;BME280;17927;52.350;13.402;2024-03-07T02:50:40;102193.97;;;10.63;54.07
31299;BME280;17927;52.350;13.402;2024-03-07T02:53:06;102189.63;;;10.61;54.09
31299;BME280;17927;52.350;13.402;2024-03-07T02:55:32;102194.19;;;10.60;54.34
31299;BME280;17927;52.350;13.402;2024-03-07T02:57:57;102200.56;;;10.59;54.39
31299;BME280;17927;52.350;13.402;2024-03-07T03:00:26;102195.16;;;10.59;54.17
31299;BME280;17927;52.350;13.402;2024-03-07T03:02:52;102194.31;;;10.59;54.18
31299;BME280;17927;52.350;13.402;2024-03-07T03:05:18;102194.31;;;10.59;54.21
31299;BME280;17927;52.350;13.402;2024-03-07T03:07:44;102189.00;;;10.57;54.34
31299;BME280;17927;52.350;13.402;2024-03-07T03:10:21;102188.13;;;10.57;54.50
31299;BME280;17927;52.350;13.402;2024-03-07T03:12:52;102199.03;;;10.55;54.41
31299;BME280;17927;52.350;13.402;2024-03-07T03:15:18;102196.25;;;10.57;54.60
31299;BME280;17927;52.350;13.402;2024-03-07T03:17:46;102198.94;;;10.57;54.31
31299;BME280;17927;52.350;13.402;2024-03-07T03:20:11;102190.06;;;10.55;54.25
31299;BME280;17927;52.350;13.402;2024-03-07T03:22:49;102192.88;;;10.53;54.28
31299;BME280;17927;52.350;13.402;2024-03-07T03:25:15;102203.78;;;10.51;54.41
31299;BME280;17927;52.350;13.402;2024-03-07T03:27:40;102202.91;;;10.51;54.44
31299;BME280;17927;52.350;13.402;2024-03-07T03:30:06;102205.75;;;10.49;54.54
31299;BME280;17927;52.350;13.402;2024-03-07T03:32:32;102195.06;;;10.48;54.61
31299;BME280;17927;52.350;13.402;2024-03-07T03:34:57;102206.81;;;10.47;54.56
31299;BME280;17927;52.350;13.402;2024-03-07T03:37:23;102210.38;;;10.47;54.58
31299;BME280;17927;52.350;13.402;2024-03-07T03:39:48;102208.66;;;10.46;54.51
31299;BME280;17927;52.350;13.402;2024-03-07T03:42:14;102206.91;;;10.45;54.37
31299;BME280;17927;52.350;13.402;2024-03-07T03:44:40;102213.41;;;10.43;54.46
31299;BME280;17927;52.350;13.402;2024-03-07T03:47:05;102207.34;;;10.39;54.24
31299;BME280;17927;52.350;13.402;2024-03-07T03:49:30;102205.69;;;10.36;54.02
31299;BME280;17927;52.350;13.402;2024-03-07T03:51:56;102212.28;;;10.32;53.82
31299;BME280;17927;52.350;13.402;2024-03-07T03:54:21;102214.31;;;10.29;54.02
31299;BME280;17927;52.350;13.402;2024-03-07T03:56:46;102220.91;;;10.25;53.96
31299;BME280;17927;52.350;13.402;2024-03-07T03:59:11;102217.53;;;10.21;53.77
31299;BME280;17927;52.350;13.402;2024-03-07T04:01:37;102213.34;;;10.17;53.56
31299;BME280;17927;52.350;13.402;2024-03-07T04:04:02;102218.06;;;10.13;53.86
31299;BME280;17927;52.350;13.402;2024-03-07T04:06:27;102215.69;;;10.09;53.43
31299;BME280;17927;52.350;13.402;2024-03-07T04:08:52;102214.16;;;10.04;53.45
31299;BME280;17927;52.350;13.402;2024-03-07T04:11:20;102218.06;;;10.00;53.72
31299;BME280;17927;52.350;13.402;2024-03-07T04:13:45;102224.63;;;9.96;53.70
31299;BME280;17927;52.350;13.402;2024-03-07T04:16:11;102221.25;;;9.93;53.42
31299;BME280;17927;52.350;13.402;2024-03-07T04:18:36;102223.28;;;9.89;53.53
31299;BME280;17927;52.350;13.402;2024-03-07T04:21:01;102223.59;;;9.84;53.41
31299;BME280;17927;52.350;13.402;2024-03-07T04:23:27;102230.19;;;9.80;53.52
31299;BME280;17927;52.350;13.402;2024-03-07T04:25:53;102223.25;;;9.76;53.46
31299;BME280;17927;52.350;13.402;2024-03-07T04:28:18;102218.16;;;9.71;53.63
31299;BME280;17927;52.350;13.402;2024-03-07T04:30:44;102221.91;;;9.69;53.30
31299;BME280;17927;52.350;13.402;2024-03-07T04:33:09;102215.97;;;9.64;53.55
31299;BME280;17927;52.350;13.402;2024-03-07T04:35:34;102216.25;;;9.59;53.60
31299;BME280;17927;52.350;13.402;2024-03-07T04:38:00;102220.03;;;9.56;53.57
31299;BME280;17927;52.350;13.402;2024-03-07T04:40:26;102212.25;;;9.52;53.56
31299;BME280;17927;52.350;13.402;2024-03-07T04:42:51;102222.38;;;9.48;53.35
31299;BME280;17927;52.350;13.402;2024-03-07T04:45:16;102223.53;;;9.44;53.26
31299;BME280;17927;52.350;13.402;2024-03-07T04:47:43;102218.44;;;9.39;53.48
31299;BME280;17927;52.350;13.402;2024-03-07T04:50:09;102223.25;;;9.34;53.69
31299;BME280;17927;52.350;13.402;2024-03-07T04:52:39;102222.69;;;9.29;53.40
31299;BME280;17927;52.350;13.402;2024-03-07T04:55:08;102230.22;;;9.24;53.65
31299;BME280;17927;52.350;13.402;2024-03-07T04:57:36;102223.41;;;9.18;53.49
31299;BME280;17927;52.350;13.402;2024-03-07T05:00:01;102225.41;;;9.14;53.65
31299;BME280;17927;52.350;13.402;2024-03-07T05:02:26;102230.13;;;9.11;53.51
31299;BME280;17927;52.350;13.402;2024-03-07T05:04:51;102228.56;;;9.07;53.64
31299;BME280;17927;52.350;13.402;2024-03-07T05:07:17;102235.03;;;9.04;53.88
31299;BME280;17927;52.350;13.402;2024-03-07T05:09:42;102236.13;;;9.02;53.54
31299;BME280;17927;52.350;13.402;2024-03-07T05:12:07;102242.53;;;8.99;53.69
31299;BME280;17927;52.350;13.402;2024-03-07T05:14:34;102239.94;;;8.97;53.86
31299;BME280;17927;52.350;13.402;2024-03-07T05:16:59;102241.88;;;8.95;53.78
31299;BME280;17927;52.350;13.402;2024-03-07T05:19:31;102239.38;;;8.92;53.69
31299;BME280;17927;52.350;13.402;2024-03-07T05:21:57;102238.59;;;8.90;53.64
31299;BME280;17927;52.350;13.402;2024-03-07T05:24:23;102245.06;;;8.88;53.74
31299;BME280;17927;52.350;13.402;2024-03-07T05:26:48;102246.13;;;8.85;53.66
31299;BME280;17927;52.350;13.402;2024-03-07T05:29:13;102248.03;;;8.83;53.64
31299;BME280;17927;52.350;13.402;2024-03-07T05:31:39;102245.63;;;8.78;53.84
31299;BME280;17927;52.350;13.402;2024-03-07T05:34:12;102254.69;;;8.77;53.75
31299;BME280;17927;52.350;13.402;2024-03-07T05:36:37;102244.84;;;8.76;53.55
31299;BME280;17927;52.350;13.402;2024-03-07T05:39:09;102250.31;;;8.75;53.62
31299;BME280;17927;52.350;13.402;2024-03-07T05:41:36;102253.00;;;8.75;53.77
31299;BME280;17927;52.350;13.402;2024-03-07T05:44:01;102253.22;;;8.72;53.75
31299;BME280;17927;52.350;13.402;2024-03-07T05:46:28;102260.53;;;8.70;53.60
31299;BME280;17927;52.350;13.402;2024-03-07T05:48:53;102265.94;;;8.70;53.98
31299;BME280;17927;52.350;13.402;2024-03-07T05:51:24;102262.34;;;8.69;53.89
31299;BME280;17927;52.350;13.402;2024-03-07T05:53:49;102259.75;;;8.67;53.76
31299;BME280;17927;52.350;13.402;2024-03-07T05:56:15;102264.19;;;8.68;53.93
31299;BME280;17927;52.350;13.402;2024-03-07T05:58:41;102266.97;;;8.67;53.86
31299;BME280;17927;52.350;13.402;2024-03-07T06:01:06;102272.44;;;8.65;54.00
31299;BME280;17927;52.350;13.402;2024-03-07T06:03:33;102271.66;;;8.63;53.48
31299;BME280;17927;52.350;13.402;2024-03-07T06:05:58;102275.31;;;8.62;53.86
31299;BME280;17927;52.350;13.402;2024-03-07T06:08:23;102274.47;;;8.62;53.64
31299;BME280;17927;52.350;13.402;2024-03-07T06:10:49;102282.44;;;8.63;53.73
31299;BME280;17927;52.350;13.402;2024-03-07T06:13:16;102278.91;;;8.63;53.91
31299;BME280;17927;52.350;13.402;2024-03-07T06:15:45;102277.06;;;8.63;54.04
31299;BME280;17927;52.350;13.402;2024-03-07T06:18:11;102275.25;;;8.64;53.89
31299;BME280;17927;52.350;13.402;2024-03-07T06:20:38;102278.78;;;8.64;53.98
31299;BME280;17927;52.350;13.402;2024-03-07T06:23:04;102285.03;;;8.65;54.09
31299;BME280;17927;52.350;13.402;2024-03-07T06:25:31;102285.81;;;8.67;53.89
31299;BME280;17927;52.350;13.402;2024-03-07T06:28:02;102280.34;;;8.68;53.81
31299;BME280;17927;52.350;13.402;2024-03-07T06:30:38;102281.97;;;8.71;54.26
31299;BME280;17927;52.350;13.402;2024-03-07T06:33:04;102289.88;;;8.74;54.29
31299;BME280;17927;52.350;13.402;2024-03-07T06:35:30;102283.34;;;8.78;53.99
31299;BME280;17927;52.350;13.402;2024-03-07T06:37:55;102289.41;;;8.82;53.92
31299;BME280;17927;52.350;13.402;2024-03-07T06:40:20;102285.47;;;8.88;54.19
31299;BME280;17927;52.350;13.402;2024-03-07T06:42:47;102282.50;;;8.92;54.17
31299;BME280;17927;52.350;13.402;2024-03-07T06:45:13;102288.47;;;8.97;54.07
31299;BME280;17927;52.350;13.402;2024-03-07T06:47:38;102289.13;;;9.01;53.93
31299;BME280;17927;52.350;13.402;2024-03-07T06:50:03;102290.69;;;9.05;53.88
31299;BME280;17927;52.350;13.402;2024-03-07T06:52:47;102295.78;;;9.10;54.03
31299;BME280;17927;52.350;13.402;2024-03-07T06:55:17;102291.28;;;9.10;54.05
31299;BME280;17927;52.350;13.402;2024-03-07T06:57:46;102294.66;;;9.14;53.62
31299;BME280;17927;52.350;13.402;2024-03-07T07:00:12;102297.06;;;9.19;53.82
31299;BME280;17927;52.350;13.402;2024-03-07T07:02:39;102301.28;;;9.23;53.69
31299;BME280;17927;52.350;13.402;2024-03-07T07:05:06;102300.13;;;9.27;53.32
31299;BME280;17927;52.350;13.402;2024-03-07T07:07:35;102302.63;;;9.30;53.62
31299;BME280;17927;52.350;13.402;2024-03-07T07:10:01;102305.91;;;9.35;53.51
31299;BME280;17927;52.350;13.402;2024-03-07T07:12:27;102304.75;;;9.39;53.41
31299;BME280;17927;52.350;13.402;2024-03-07T07:14:53;102302.53;;;9.46;53.08
31299;BME280;17927;52.350;13.402;2024-03-07T07:17:18;102309.44;;;9.50;53.45
31299;BME280;17927;52.350;13.402;2024-03-07T07:19:44;102310.91;;;9.56;53.03
31299;BME280;17927;52.350;13.402;2024-03-07T07:22:10;102303.47;;;9.59;52.83
31299;BME280;17927;52.350;13.402;2024-03-07T07:24:37;102312.16;;;9.65;52.84
31299;BME280;17927;52.350;13.402;2024-03-07T07:27:03;102309.16;;;9.69;52.59
31299;BME280;17927;52.350;13.402;2024-03-07T07:29:28;102319.66;;;9.74;52.71
31299;BME280;17927;52.350;13.402;2024-03-07T07:31:53;102315.69;;;9.80;52.43
31299;BME280;17927;52.350;13.402;2024-03-07T07:34:18;102319.16;;;9.82;52.53
31299;BME280;17927;52.350;13.402;2024-03-07T07:36:44;102308.16;;;9.85;52.46
31299;BME280;17927;52.350;13.402;2024-03-07T07:39:09;102311.50;;;9.88;52.18
31299;BME280;17927;52.350;13.402;2024-03-07T07:41:42;102314.78;;;9.94;52.06
31299;BME280;17927;52.350;13.402;2024-03-07T07:44:07;102311.88;;;9.97;52.05
31299;BME280;17927;52.350;13.402;2024-03-07T07:46:33;102300.97;;;9.98;51.82
31299;BME280;17927;52.350;13.402;2024-03-07T07:48:59;102310.69;;;10.01;51.42
31299;BME280;17927;52.350;13.402;2024-03-07T07:51:24;102312.44;;;10.02;51.42
31299;BME280;17927;52.350;13.402;2024-03-07T07:53:50;102302.28;;;10.05;51.42
31299;BME280;17927;52.350;13.402;2024-03-07T07:56:15;102313.78;;;10.09;51.26
31299;BME280;17927;52.350;13.402;2024-03-07T07:58:41;102303.63;;;10.13;51.35
31299;BME280;17927;52.350;13.402;2024-03-07T08:01:06;102304.19;;;10.18;50.98
31299;BME280;17927;52.350;13.402;2024-03-07T08:03:34;102313.81;;;10.22;51.01
31299;BME280;17927;52.350;13.402;2024-03-07T08:06:00;102308.19;;;10.25;51.28
31299;BME280;17927;52.350;13.402;2024-03-07T08:08:32;102307.81;;;10.31;50.73
31299;BME280;17927;52.350;13.402;2024-03-07T08:10:58;102303.91;;;10.35;51.10
31299;BME280;17927;52.350;13.402;2024-03-07T08:13:24;102312.53;;;10.42;51.01
31299;BME280;17927;52.350;13.402;2024-03-07T08:15:50;102308.63;;;10.46;50.71
31299;BME280;17927;52.350;13.402;2024-03-07T08:18:15;102312.97;;;10.49;50.61
31299;BME280;17927;52.350;13.402;2024-03-07T08:20:42;102299.22;;;10.52;50.37
31299;BME280;17927;52.350;13.402;2024-03-07T08:23:08;102305.19;;;10.57;50.60
31299;BME280;17927;52.350;13.402;2024-03-07T08:25:34;102313.94;;;10.61;50.19
31299;BME280;17927;52.350;13.402;2024-03-07T08:27:59;102311.91;;;10.64;50.27
31299;BME280;17927;52.350;13.402;2024-03-07T08:30:25;102305.31;;;10.69;50.10
31299;BME280;17927;52.350;13.402;2024-03-07T08:32:53;102298.72;;;10.73;50.25
31299;BME280;17927;52.350;13.402;2024-03-07T08:35:19;102307.28;;;10.79;50.02
31299;BME280;17927;52.350;13.402;2024-03-07T08:37:46;102305.88;;;10.87;49.89
31299;BME280;17927;52.350;13.402;2024-03-07T08:40:14;102308.25;;;10.91;49.59
31299;BME280;17927;52.350;13.402;2024-03-07T08:42:45;102309.66;;;10.97;49.77
31299;BME280;17927;52.350;13.402;2024-03-07T08:45:10;102311.97;;;11.03;49.57
31299;BME280;17927;52.350;13.402;2024-03-07T08:47:37;102313.44;;;11.07;49.09
31299;BME280;17927;52.350;13.402;2024-03-07T08:50:04;102305.88;;;11.12;49.02
31299;BME280;17927;52.350;13.402;2024-03-07T08:52:33;102302.97;;;11.16;48.80
31299;BME280;17927;52.350;13.402;2024-03-07T08:55:01;102309.78;;;11.21;48.90
31299;BME280;17927;52.350;13.402;2024-03-07T08:57:27;102308.47;;;11.27;48.58
31299;BME280;17927;52.350;13.402;2024-03-07T08:59:52;102306.41;;;11.31;48.67
31299;BME280;17927;52.350;13.402;2024-03-07T09:02:18;102305.97;;;11.37;48.70
31299;BME280;17927;52.350;13.402;2024-03-07T09:04:43;102308.13;;;11.45;48.43
31299;BME280;17927;52.350;13.402;2024-03-07T09:07:08;102314.84;;;11.52;48.63
31299;BME280;17927;52.350;13.402;2024-03-07T09:09:34;102308.88;;;11.60;48.16
31299;BME280;17927;52.350;13.402;2024-03-07T09:12:00;102304.84;;;11.65;47.87
31299;BME280;17927;52.350;13.402;2024-03-07T09:14:27;102301.88;;;11.68;47.65
31299;BME280;17927;52.350;13.402;2024-03-07T09:16:52;102309.69;;;11.73;47.27
31299;BME280;17927;52.350;13.402;2024-03-07T09:19:17;102306.88;;;11.75;46.91
31299;BME280;17927;52.350;13.402;2024-03-07T09:21:47;102303.19;;;11.76;46.53
31299;BME280;17927;52.350;13.402;2024-03-07T09:24:14;102312.81;;;11.80;46.48
31299;BME280;17927;52.350;13.402;2024-03-07T09:26:40;102300.75;;;11.84;46.19
31299;BME280;17927;52.350;13.402;2024-03-07T09:29:05;102304.13;;;11.87;46.08
31299;BME280;17927;52.350;13.402;2024-03-07T09:31:34;102300.19;;;11.92;46.00
31299;BME280;17927;52.350;13.402;2024-03-07T09:33:59;102301.69;;;11.96;45.80
31299;BME280;17927;52.350;13.402;2024-03-07T09:36:25;102304.31;;;11.97;45.87
31299;BME280;17927;52.350;13.402;2024-03-07T09:38:50;102308.44;;;12.03;45.40
31299;BME280;17927;52.350;13.402;2024-03-07T09:41:16;102309.19;;;12.05;45.39
31299;BME280;17927;52.350;13.402;2024-03-07T09:43:43;102306.13;;;12.10;45.15
31299;BME280;17927;52.350;13.402;2024-03-07T09:46:09;102300.59;;;12.11;45.20
31299;BME280;17927;52.350;13.402;2024-03-07T09:48:35;102301.22;;;12.15;45.22
31299;BME280;17927;52.350;13.402;2024-03-07T09:51:02;102303.69;;;12.18;44.74
31299;BME280;17927;52.350;13.402;2024-03-07T09:53:28;102296.44;;;12.18;44.56
31299;BME280;17927;52.350;13.402;2024-03-07T09:55:54;102299.91;;;12.21;44.79
31299;BME280;17927;52.350;13.402;2024-03-07T09:58:20;102293.91;;;12.28;44.69
31299;BME280;17927;52.350;13.402;2024-03-07T10:00:45;102300.69;;;12.34;44.63
31299;BME280;17927;52.350;13.402;2024-03-07T10:03:12;102296.75;;;12.38;44.21
31299;BME280;17927;52.350;13.402;2024-03-07T10:05:41;102295.78;;;12.39;44.20
31299;BME280;17927;52.350;13.402;2024-03-07T10:08:06;102291.09;;;12.41;43.62
31299;BME280;17927;52.350;13.402;2024-03-07T10:10:32;102292.59;;;12.45;43.95
31299;BME280;17927;52.350;13.402;2024-03-07T10:12:58;102290.66;;;12.47;44.14
31299;BME280;17927;52.350;13.402;2024-03-07T10:15:32;102282.38;;;12.49;43.26
31299;BME280;17927;52.350;13.402;2024-03-07T10:18:00;102276.13;;;12.48;43.25
31299;BME280;17927;52.350;13.402;2024-03-07T10:20:26;102286.34;;;12.45;43.36
31299;BME280;17927;52.350;13.402;2024-03-07T10:22:52;102275.38;;;12.46;43.39
31299;BME280;17927;52.350;13.402;2024-03-07T10:25:21;102273.28;;;12.50;43.34
31299;BME280;17927;52.350;13.402;2024-03-07T10:27:50;102277.63;;;12.53;42.76
31299;BME280;17927;52.350;13.402;2024-03-07T10:30:16;102277.34;;;12.56;42.78
31299;BME280;17927;52.350;13.402;2024-03-07T10:32:46;102278.09;;;12.58;42.52
31299;BME280;17927;52.350;13.402;2024-03-07T10:35:11;102271.69;;;12.59;42.51
31299;BME280;17927;52.350;13.402;2024-03-07T10:37:38;102270.34;;;12.64;42.29
31299;BME280;17927;52.350;13.402;2024-03-07T10:40:03;102271.00;;;12.68;42.29
31299;BME280;17927;52.350;13.402;2024-03-07T10:42:44;102269.66;;;12.74;42.26
31299;BME280;17927;52.350;13.402;2024-03-07T10:45:11;102255.81;;;12.77;42.29
31299;BME280;17927;52.350;13.402;2024-03-07T10:47:37;102259.06;;;12.82;42.14
31299;BME280;17927;52.350;13.402;2024-03-07T10:55:41;102259.44;;;12.89;41.61
31299;BME280;17927;52.350;13.402;2024-03-07T11:00:56;102243.66;;;12.94;41.18
31299;BME280;17927;52.350;13.402;2024-03-07T11:03:23;102247.97;;;12.97;41.57
31299;BME280;17927;52.350;13.402;2024-03-07T11:05:50;102253.91;;;13.02;41.18
31299;BME280;17927;52.350;13.402;2024-03-07T11:08:15;102247.50;;;13.03;40.95
31299;BME280;17927;52.350;13.402;2024-03-07T11:10:42;102252.03;;;13.02;41.13
31299;BME280;17927;52.350;13.402;2024-03-07T11:13:10;102255.25;;;13.07;40.84
31299;BME280;17927;52.350;13.402;2024-03-07T11:15:38;102249.44;;;13.12;41.14
31299;BME280;17927;52.350;13.402;2024-03-07T11:18:05;102251.69;;;13.18;40.91
31299;BME280;17927;52.350;13.402;2024-03-07T11:20:37;102242.19;;;13.24;40.40
31299;BME280;17927;52.350;13.402;2024-03-07T11:23:25;102240.06;;;13.28;40.20
31299;BME280;17927;52.350;13.402;2024-03-07T11:26:04;102235.38;;;13.30;40.46
31299;BME280;17927;52.350;13.402;2024-03-07T11:28:32;102235.16;;;13.33;40.46
31299;BME280;17927;52.350;13.402;2024-03-07T11:31:12;102237.63;;;13.36;39.96
31299;BME280;17927;52.350;13.402;2024-03-07T11:33:38;102233.28;;;13.33;40.56
31299;BME280;17927;52.350;13.402;2024-03-07T11:36:10;102226.75;;;13.36;40.04
31299;BME280;17927;52.350;13.402;2024-03-07T11:38:45;102231.84;;;13.40;40.04
31299;BME280;17927;52.350;13.402;2024-03-07T11:41:13;102227.88;;;13.45;40.28
31299;BME280;17927;52.350;13.402;2024-03-07T11:43:42;102218.38;;;13.50;40.14
31299;BME280;17927;52.350;13.402;2024-03-07T11:46:08;102209.00;;;13.54;40.10
31299;BME280;17927;52.350;13.402;2024-03-07T11:48:41;102215.75;;;13.60;40.26
31299;BME280;17927;52.350;13.402;2024-03-07T11:51:07;102216.13;;;13.67;40.32
31299;BME280;17927;52.350;13.402;2024-03-07T11:53:36;102219.19;;;13.74;40.30
31299;BME280;17927;52.350;13.402;2024-03-07T11:56:03;102222.09;;;13.82;40.41
31299;BME280;17927;52.350;13.402;2024-03-07T11:58:37;102211.72;;;13.87;40.17
31299;BME280;17927;52.350;13.402;2024-03-07T12:01:05;102202.03;;;13.94;40.69
31299;BME280;17927;52.350;13.402;2024-03-07T12:03:31;102200.03;;;14.08;40.75
31299;BME280;17927;52.350;13.402;2024-03-07T12:05:59;102191.69;;;14.21;41.08
31299;BME280;17927;52.350;13.402;2024-03-07T12:08:24;102198.38;;;14.38;41.27
31299;BME280;17927;52.350;13.402;2024-03-07T12:10:51;102193.19;;;14.56;40.84
31299;BME280;17927;52.350;13.402;2024-03-07T12:13:21;102184.56;;;14.72;41.14
31299;BME280;17927;52.350;13.402;2024-03-07T12:15:46;102181.09;;;14.91;41.23
31299;BME280;17927;52.350;13.402;2024-03-07T12:18:12;102180.44;;;15.09;41.08
31299;BME280;17927;52.350;13.402;2024-03-07T12:20:42;102192.69;;;15.24;41.20
31299;BME280;17927;52.350;13.402;2024-03-07T12:23:12;102179.25;;;15.42;40.86
31299;BME280;17927;52.350;13.402;2024-03-07T12:25:38;102176.25;;;15.55;40.33
31299;BME280;17927;52.350;13.402;2024-03-07T12:28:05;102176.84;;;15.68;40.14
31299;BME280;17927;52.350;13.402;2024-03-07T12:30:35;102169.09;;;15.83;39.41
31299;BME280;17927;52.350;13.402;2024-03-07T12:33:01;102168.00;;;15.96;39.77
31299;BME280;17927;52.350;13.402;2024-03-07T12:35:29;102163.09;;;16.09;39.25
31299;BME280;17927;52.350;13.402;2024-03-07T12:37:54;102175.56;;;16.22;39.18
31299;BME280;17927;52.350;13.402;2024-03-07T12:40:21;102167.78;;;16.37;38.78
31299;BME280;17927;52.350;13.402;2024-03-07T12:42:50;102164.03;;;16.48;37.94
31299;BME280;17927;52.350;13.402;2024-03-07T12:45:16;102161.09;;;16.59;38.17
31299;BME280;17927;52.350;13.402;2024-03-07T12:47:48;102158.22;;;16.70;37.32